sensor_id;sensor_type;location;lat;lon;timestamp;P1;durP1;ratioP1;P2;durP2;ratioP2
68310;SDS011;55157;51.036;17.058;2023-03-01T00:01:24;109.40;;;58.55;;
68310;SDS011;55157;51.036;17.058;2023-03-01T00:03:50;120.00;;;59.60;;
68310;SDS011;55157;51.036;17.058;2023-03-01T00:06:15;108.78;;;57.33;;
68310;SDS011;55157;51.036;17.058;2023-03-01T00:08:42;115.13;;;56.90;;
68310;SDS011;55157;51.036;17.058;2023-03-01T00:11:08;106.70;;;56.13;;
68310;SDS011;55157;51.036;17.058;2023-03-01T00:13:33;105.88;;;56.22;;
68310;SDS011;55157;51.036;17.058;2023-03-01T00:16:01;100.43;;;53.42;;
68310;SDS011;55157;51.036;17.058;2023-03-01T00:18:26;103.43;;;54.67;;
68310;SDS011;55157;51.036;17.058;2023-03-01T00:20:51;104.00;;;54.67;;
68310;SDS011;55157;51.036;17.058;2023-03-01T00:23:16;112.15;;;55.53;;
68310;SDS011;55157;51.036;17.058;2023-03-01T00:25:43;104.75;;;57.05;;
68310;SDS011;55157;51.036;17.058;2023-03-01T00:28:08;105.93;;;55.50;;
68310;SDS011;55157;51.036;17.058;2023-03-01T00:30:34;110.50;;;57.00;;
68310;SDS011;55157;51.036;17.058;2023-03-01T00:32:59;99.50;;;54.33;;
68310;SDS011;55157;51.036;17.058;2023-03-01T00:35:24;102.95;;;52.72;;
68310;SDS011;55157;51.036;17.058;2023-03-01T00:37:50;107.30;;;55.45;;
68310;SDS011;55157;51.036;17.058;2023-03-01T00:40:15;115.60;;;56.70;;
68310;SDS011;55157;51.036;17.058;2023-03-01T00:42:41;102.85;;;55.10;;
68310;SDS011;55157;51.036;17.058;2023-03-01T00:45:07;113.60;;;58.90;;
68310;SDS011;55157;51.036;17.058;2023-03-01T00:47:32;108.85;;;57.13;;
68310;SDS011;55157;51.036;17.058;2023-03-01T00:49:58;106.40;;;57.65;;
68310;SDS011;55157;51.036;17.058;2023-03-01T00:52:23;106.22;;;57.22;;
68310;SDS011;55157;51.036;17.058;2023-03-01T00:54:48;119.18;;;58.22;;
68310;SDS011;55157;51.036;17.058;2023-03-01T00:57:16;114.28;;;58.83;;
68310;SDS011;55157;51.036;17.058;2023-03-01T00:59:43;117.95;;;58.90;;
68310;SDS011;55157;51.036;17.058;2023-03-01T01:02:08;113.78;;;58.17;;
68310;SDS011;55157;51.036;17.058;2023-03-01T01:04:33;111.93;;;60.45;;
68310;SDS011;55157;51.036;17.058;2023-03-01T01:06:59;112.68;;;59.03;;
68310;SDS011;55157;51.036;17.058;2023-03-01T01:09:24;117.10;;;60.00;;
68310;SDS011;55157;51.036;17.058;2023-03-01T01:11:50;113.25;;;57.97;;
68310;SDS011;55157;51.036;17.058;2023-03-01T01:14:15;113.50;;;57.90;;
68310;SDS011;55157;51.036;17.058;2023-03-01T01:16:42;106.03;;;54.63;;
68310;SDS011;55157;51.036;17.058;2023-03-01T01:19:08;111.97;;;60.05;;
68310;SDS011;55157;51.036;17.058;2023-03-01T01:21:34;114.60;;;59.33;;
68310;SDS011;55157;51.036;17.058;2023-03-01T01:23:59;114.70;;;60.10;;
68310;SDS011;55157;51.036;17.058;2023-03-01T01:26:25;113.30;;;61.42;;
68310;SDS011;55157;51.036;17.058;2023-03-01T01:28:51;113.47;;;57.45;;
68310;SDS011;55157;51.036;17.058;2023-03-01T01:31:16;109.60;;;56.35;;
68310;SDS011;55157;51.036;17.058;2023-03-01T01:33:43;108.75;;;58.28;;
68310;SDS011;55157;51.036;17.058;2023-03-01T01:36:08;110.70;;;57.38;;
68310;SDS011;55157;51.036;17.058;2023-03-01T01:38:34;107.97;;;56.30;;
68310;SDS011;55157;51.036;17.058;2023-03-01T01:40:59;112.90;;;57.47;;
68310;SDS011;55157;51.036;17.058;2023-03-01T01:43:25;103.22;;;55.58;;
68310;SDS011;55157;51.036;17.058;2023-03-01T01:45:51;108.50;;;55.17;;
68310;SDS011;55157;51.036;17.058;2023-03-01T01:48:20;107.03;;;55.08;;
68310;SDS011;55157;51.036;17.058;2023-03-01T01:50:48;110.68;;;57.53;;
68310;SDS011;55157;51.036;17.058;2023-03-01T01:53:16;111.35;;;58.03;;
68310;SDS011;55157;51.036;17.058;2023-03-01T01:55:44;112.22;;;56.40;;
68310;SDS011;55157;51.036;17.058;2023-03-01T01:58:10;100.80;;;57.28;;
68310;SDS011;55157;51.036;17.058;2023-03-01T02:00:37;103.18;;;56.58;;
68310;SDS011;55157;51.036;17.058;2023-03-01T02:03:03;106.03;;;55.10;;
68310;SDS011;55157;51.036;17.058;2023-03-01T02:05:33;110.43;;;54.67;;
68310;SDS011;55157;51.036;17.058;2023-03-01T02:08:01;102.57;;;53.83;;
68310;SDS011;55157;51.036;17.058;2023-03-01T02:10:27;102.47;;;53.80;;
68310;SDS011;55157;51.036;17.058;2023-03-01T02:12:52;97.03;;;51.90;;
68310;SDS011;55157;51.036;17.058;2023-03-01T02:15:18;104.47;;;56.05;;
68310;SDS011;55157;51.036;17.058;2023-03-01T02:17:43;94.93;;;52.65;;
68310;SDS011;55157;51.036;17.058;2023-03-01T02:20:11;101.40;;;53.33;;
68310;SDS011;55157;51.036;17.058;2023-03-01T02:22:40;102.75;;;55.20;;
68310;SDS011;55157;51.036;17.058;2023-03-01T02:25:12;100.68;;;56.53;;
68310;SDS011;55157;51.036;17.058;2023-03-01T02:27:43;104.95;;;53.78;;
68310;SDS011;55157;51.036;17.058;2023-03-01T02:30:14;96.25;;;53.17;;
68310;SDS011;55157;51.036;17.058;2023-03-01T02:32:40;97.60;;;52.72;;
68310;SDS011;55157;51.036;17.058;2023-03-01T02:35:05;109.13;;;56.70;;
68310;SDS011;55157;51.036;17.058;2023-03-01T02:37:31;98.90;;;52.78;;
68310;SDS011;55157;51.036;17.058;2023-03-01T02:39:57;105.15;;;54.80;;
68310;SDS011;55157;51.036;17.058;2023-03-01T02:42:23;99.65;;;51.72;;
68310;SDS011;55157;51.036;17.058;2023-03-01T02:44:50;112.40;;;55.58;;
68310;SDS011;55157;51.036;17.058;2023-03-01T02:47:17;110.22;;;56.55;;
68310;SDS011;55157;51.036;17.058;2023-03-01T02:49:42;103.50;;;53.50;;
68310;SDS011;55157;51.036;17.058;2023-03-01T02:52:13;122.13;;;56.63;;
68310;SDS011;55157;51.036;17.058;2023-03-01T02:54:40;108.68;;;55.65;;
68310;SDS011;55157;51.036;17.058;2023-03-01T02:57:05;110.15;;;55.83;;
68310;SDS011;55157;51.036;17.058;2023-03-01T02:59:32;101.88;;;55.10;;
68310;SDS011;55157;51.036;17.058;2023-03-01T03:02:00;111.43;;;56.30;;
68310;SDS011;55157;51.036;17.058;2023-03-01T03:04:27;103.55;;;55.85;;
68310;SDS011;55157;51.036;17.058;2023-03-01T03:06:52;116.78;;;57.28;;
68310;SDS011;55157;51.036;17.058;2023-03-01T03:09:17;110.50;;;56.20;;
68310;SDS011;55157;51.036;17.058;2023-03-01T03:11:43;121.53;;;57.60;;
68310;SDS011;55157;51.036;17.058;2023-03-01T03:14:08;112.85;;;59.92;;
68310;SDS011;55157;51.036;17.058;2023-03-01T03:16:34;108.85;;;56.92;;
68310;SDS011;55157;51.036;17.058;2023-03-01T03:18:59;109.80;;;57.78;;
68310;SDS011;55157;51.036;17.058;2023-03-01T03:21:26;103.03;;;56.65;;
68310;SDS011;55157;51.036;17.058;2023-03-01T03:23:51;103.63;;;55.15;;
68310;SDS011;55157;51.036;17.058;2023-03-01T03:26:16;119.50;;;58.08;;
68310;SDS011;55157;51.036;17.058;2023-03-01T03:28:41;104.18;;;59.00;;
68310;SDS011;55157;51.036;17.058;2023-03-01T03:31:07;111.40;;;57.78;;
68310;SDS011;55157;51.036;17.058;2023-03-01T03:33:32;109.38;;;56.92;;
68310;SDS011;55157;51.036;17.058;2023-03-01T03:35:58;109.18;;;57.10;;
68310;SDS011;55157;51.036;17.058;2023-03-01T03:38:25;109.45;;;55.70;;
68310;SDS011;55157;51.036;17.058;2023-03-01T03:40:50;111.43;;;57.22;;
68310;SDS011;55157;51.036;17.058;2023-03-01T03:43:16;107.97;;;55.10;;
68310;SDS011;55157;51.036;17.058;2023-03-01T03:45:43;105.97;;;56.42;;
68310;SDS011;55157;51.036;17.058;2023-03-01T03:48:09;108.13;;;57.47;;
68310;SDS011;55157;51.036;17.058;2023-03-01T03:50:34;101.97;;;55.55;;
68310;SDS011;55157;51.036;17.058;2023-03-01T03:53:00;96.35;;;53.35;;
68310;SDS011;55157;51.036;17.058;2023-03-01T03:55:27;100.03;;;54.42;;
68310;SDS011;55157;51.036;17.058;2023-03-01T03:57:52;108.38;;;54.53;;
68310;SDS011;55157;51.036;17.058;2023-03-01T04:00:18;105.63;;;54.72;;
68310;SDS011;55157;51.036;17.058;2023-03-01T04:02:44;95.80;;;53.13;;
68310;SDS011;55157;51.036;17.058;2023-03-01T04:05:10;96.47;;;53.45;;
68310;SDS011;55157;51.036;17.058;2023-03-01T04:07:36;101.13;;;55.13;;
68310;SDS011;55157;51.036;17.058;2023-03-01T04:10:01;109.10;;;55.15;;
68310;SDS011;55157;51.036;17.058;2023-03-01T04:12:28;102.68;;;53.60;;
68310;SDS011;55157;51.036;17.058;2023-03-01T04:14:53;102.00;;;52.92;;
68310;SDS011;55157;51.036;17.058;2023-03-01T04:17:19;103.85;;;54.47;;
68310;SDS011;55157;51.036;17.058;2023-03-01T04:19:44;104.97;;;56.88;;
68310;SDS011;55157;51.036;17.058;2023-03-01T04:22:09;100.70;;;55.25;;
68310;SDS011;55157;51.036;17.058;2023-03-01T04:24:34;101.28;;;51.60;;
68310;SDS011;55157;51.036;17.058;2023-03-01T04:27:00;99.30;;;53.95;;
68310;SDS011;55157;51.036;17.058;2023-03-01T04:29:26;98.40;;;54.90;;
68310;SDS011;55157;51.036;17.058;2023-03-01T04:31:52;106.40;;;53.50;;
68310;SDS011;55157;51.036;17.058;2023-03-01T04:34:17;100.60;;;53.58;;
68310;SDS011;55157;51.036;17.058;2023-03-01T04:36:42;107.93;;;54.17;;
68310;SDS011;55157;51.036;17.058;2023-03-01T04:39:07;97.30;;;53.45;;
68310;SDS011;55157;51.036;17.058;2023-03-01T04:41:33;99.35;;;54.10;;
68310;SDS011;55157;51.036;17.058;2023-03-01T04:43:58;106.32;;;54.78;;
68310;SDS011;55157;51.036;17.058;2023-03-01T04:46:24;96.60;;;51.80;;
68310;SDS011;55157;51.036;17.058;2023-03-01T04:48:50;104.05;;;55.13;;
68310;SDS011;55157;51.036;17.058;2023-03-01T04:51:15;104.82;;;57.45;;
68310;SDS011;55157;51.036;17.058;2023-03-01T04:53:41;101.28;;;55.88;;
68310;SDS011;55157;51.036;17.058;2023-03-01T04:56:06;97.85;;;55.75;;
68310;SDS011;55157;51.036;17.058;2023-03-01T04:58:31;104.35;;;56.30;;
68310;SDS011;55157;51.036;17.058;2023-03-01T05:00:57;104.72;;;55.72;;
68310;SDS011;55157;51.036;17.058;2023-03-01T05:03:24;107.90;;;54.60;;
68310;SDS011;55157;51.036;17.058;2023-03-01T05:05:49;121.53;;;56.25;;
68310;SDS011;55157;51.036;17.058;2023-03-01T05:08:15;105.35;;;57.58;;
68310;SDS011;55157;51.036;17.058;2023-03-01T05:10:40;121.78;;;62.50;;
68310;SDS011;55157;51.036;17.058;2023-03-01T05:13:06;109.57;;;57.70;;
68310;SDS011;55157;51.036;17.058;2023-03-01T05:15:31;128.02;;;60.22;;
68310;SDS011;55157;51.036;17.058;2023-03-01T05:17:57;123.32;;;62.15;;
68310;SDS011;55157;51.036;17.058;2023-03-01T05:20:24;135.25;;;62.60;;
68310;SDS011;55157;51.036;17.058;2023-03-01T05:22:49;139.65;;;65.35;;
68310;SDS011;55157;51.036;17.058;2023-03-01T05:25:15;133.73;;;62.15;;
68310;SDS011;55157;51.036;17.058;2023-03-01T05:27:40;139.00;;;63.47;;
68310;SDS011;55157;51.036;17.058;2023-03-01T05:30:06;120.53;;;60.78;;
68310;SDS011;55157;51.036;17.058;2023-03-01T05:32:32;136.73;;;67.78;;
68310;SDS011;55157;51.036;17.058;2023-03-01T05:34:57;137.95;;;67.07;;
68310;SDS011;55157;51.036;17.058;2023-03-01T05:37:24;149.15;;;68.13;;
68310;SDS011;55157;51.036;17.058;2023-03-01T05:39:49;159.02;;;71.20;;
68310;SDS011;55157;51.036;17.058;2023-03-01T05:42:14;158.93;;;69.45;;
68310;SDS011;55157;51.036;17.058;2023-03-01T05:44:39;164.95;;;75.53;;
68310;SDS011;55157;51.036;17.058;2023-03-01T05:47:04;160.63;;;77.57;;
68310;SDS011;55157;51.036;17.058;2023-03-01T05:49:30;166.20;;;78.30;;
68310;SDS011;55157;51.036;17.058;2023-03-01T05:51:56;172.57;;;77.72;;
68310;SDS011;55157;51.036;17.058;2023-03-01T05:54:23;166.38;;;75.38;;
68310;SDS011;55157;51.036;17.058;2023-03-01T05:56:49;154.57;;;74.72;;
68310;SDS011;55157;51.036;17.058;2023-03-01T05:59:14;160.48;;;77.22;;
68310;SDS011;55157;51.036;17.058;2023-03-01T06:01:40;171.80;;;76.60;;
68310;SDS011;55157;51.036;17.058;2023-03-01T06:04:05;161.48;;;75.90;;
68310;SDS011;55157;51.036;17.058;2023-03-01T06:06:33;159.98;;;73.35;;
68310;SDS011;55157;51.036;17.058;2023-03-01T06:08:58;170.52;;;73.97;;
68310;SDS011;55157;51.036;17.058;2023-03-01T06:11:25;149.25;;;70.13;;
68310;SDS011;55157;51.036;17.058;2023-03-01T06:13:50;140.45;;;70.18;;
68310;SDS011;55157;51.036;17.058;2023-03-01T06:16:16;147.90;;;67.53;;
68310;SDS011;55157;51.036;17.058;2023-03-01T06:18:41;135.40;;;64.60;;
68310;SDS011;55157;51.036;17.058;2023-03-01T06:21:07;140.68;;;66.90;;
68310;SDS011;55157;51.036;17.058;2023-03-01T06:23:32;136.52;;;66.93;;
68310;SDS011;55157;51.036;17.058;2023-03-01T06:25:58;139.00;;;71.80;;
68310;SDS011;55157;51.036;17.058;2023-03-01T06:28:25;150.43;;;71.70;;
68310;SDS011;55157;51.036;17.058;2023-03-01T06:30:50;132.40;;;66.03;;
68310;SDS011;55157;51.036;17.058;2023-03-01T06:33:16;146.88;;;69.90;;
68310;SDS011;55157;51.036;17.058;2023-03-01T06:35:41;142.27;;;72.22;;
68310;SDS011;55157;51.036;17.058;2023-03-01T06:38:06;177.32;;;85.13;;
68310;SDS011;55157;51.036;17.058;2023-03-01T06:40:31;178.35;;;93.55;;
68310;SDS011;55157;51.036;17.058;2023-03-01T06:42:57;171.80;;;79.88;;
68310;SDS011;55157;51.036;17.058;2023-03-01T06:45:24;204.30;;;102.00;;
68310;SDS011;55157;51.036;17.058;2023-03-01T06:47:49;222.52;;;107.63;;
68310;SDS011;55157;51.036;17.058;2023-03-01T06:50:15;194.27;;;98.90;;
68310;SDS011;55157;51.036;17.058;2023-03-01T06:52:40;187.57;;;92.18;;
68310;SDS011;55157;51.036;17.058;2023-03-01T06:55:06;177.45;;;92.05;;
68310;SDS011;55157;51.036;17.058;2023-03-01T06:57:31;162.07;;;84.97;;
68310;SDS011;55157;51.036;17.058;2023-03-01T06:59:57;152.63;;;80.43;;
68310;SDS011;55157;51.036;17.058;2023-03-01T07:02:23;174.82;;;96.70;;
68310;SDS011;55157;51.036;17.058;2023-03-01T07:04:49;177.27;;;100.05;;
68310;SDS011;55157;51.036;17.058;2023-03-01T07:07:14;160.05;;;89.07;;
68310;SDS011;55157;51.036;17.058;2023-03-01T07:09:39;128.18;;;72.80;;
68310;SDS011;55157;51.036;17.058;2023-03-01T07:12:05;130.10;;;65.40;;
68310;SDS011;55157;51.036;17.058;2023-03-01T07:14:30;130.60;;;76.22;;
68310;SDS011;55157;51.036;17.058;2023-03-01T07:16:56;134.30;;;73.63;;
68310;SDS011;55157;51.036;17.058;2023-03-01T07:19:22;143.50;;;72.10;;
68310;SDS011;55157;51.036;17.058;2023-03-01T07:21:48;133.77;;;71.40;;
68310;SDS011;55157;51.036;17.058;2023-03-01T07:24:13;120.32;;;62.33;;
68310;SDS011;55157;51.036;17.058;2023-03-01T07:26:38;115.93;;;61.80;;
68310;SDS011;55157;51.036;17.058;2023-03-01T07:29:04;125.50;;;65.70;;
68310;SDS011;55157;51.036;17.058;2023-03-01T07:31:30;114.07;;;60.58;;
68310;SDS011;55157;51.036;17.058;2023-03-01T07:33:55;117.88;;;62.85;;
68310;SDS011;55157;51.036;17.058;2023-03-01T07:36:22;113.40;;;62.15;;
68310;SDS011;55157;51.036;17.058;2023-03-01T07:38:47;118.47;;;62.60;;
68310;SDS011;55157;51.036;17.058;2023-03-01T07:41:12;118.90;;;61.13;;
68310;SDS011;55157;51.036;17.058;2023-03-01T07:43:38;117.57;;;62.42;;
68310;SDS011;55157;51.036;17.058;2023-03-01T07:46:03;116.68;;;62.97;;
68310;SDS011;55157;51.036;17.058;2023-03-01T07:48:29;109.68;;;60.47;;
68310;SDS011;55157;51.036;17.058;2023-03-01T07:50:54;116.45;;;61.15;;
68310;SDS011;55157;51.036;17.058;2023-03-01T07:53:21;118.93;;;60.10;;
68310;SDS011;55157;51.036;17.058;2023-03-01T07:55:46;117.35;;;63.45;;
68310;SDS011;55157;51.036;17.058;2023-03-01T07:58:11;106.72;;;59.92;;
68310;SDS011;55157;51.036;17.058;2023-03-01T08:00:36;121.70;;;67.53;;
68310;SDS011;55157;51.036;17.058;2023-03-01T08:03:02;117.18;;;64.68;;
68310;SDS011;55157;51.036;17.058;2023-03-01T08:05:27;114.25;;;58.90;;
68310;SDS011;55157;51.036;17.058;2023-03-01T08:07:53;113.65;;;60.67;;
68310;SDS011;55157;51.036;17.058;2023-03-01T08:10:19;118.53;;;58.45;;
68310;SDS011;55157;51.036;17.058;2023-03-01T08:12:45;109.60;;;54.65;;
68310;SDS011;55157;51.036;17.058;2023-03-01T08:15:10;99.60;;;52.42;;
68310;SDS011;55157;51.036;17.058;2023-03-01T08:17:36;99.15;;;52.90;;
68310;SDS011;55157;51.036;17.058;2023-03-01T08:20:01;89.30;;;52.97;;
68310;SDS011;55157;51.036;17.058;2023-03-01T08:22:26;90.38;;;53.45;;
68310;SDS011;55157;51.036;17.058;2023-03-01T08:24:51;91.47;;;54.22;;
68310;SDS011;55157;51.036;17.058;2023-03-01T08:27:18;83.32;;;46.83;;
68310;SDS011;55157;51.036;17.058;2023-03-01T08:29:43;74.80;;;42.97;;
68310;SDS011;55157;51.036;17.058;2023-03-01T08:32:09;76.30;;;45.72;;
68310;SDS011;55157;51.036;17.058;2023-03-01T08:34:34;77.53;;;47.03;;
68310;SDS011;55157;51.036;17.058;2023-03-01T08:36:59;82.18;;;46.45;;
68310;SDS011;55157;51.036;17.058;2023-03-01T08:39:24;76.03;;;41.03;;
68310;SDS011;55157;51.036;17.058;2023-03-01T08:41:49;51.17;;;28.98;;
68310;SDS011;55157;51.036;17.058;2023-03-01T08:44:16;49.58;;;28.15;;
68310;SDS011;55157;51.036;17.058;2023-03-01T08:46:41;58.08;;;32.17;;
68310;SDS011;55157;51.036;17.058;2023-03-01T08:49:08;76.22;;;39.83;;
68310;SDS011;55157;51.036;17.058;2023-03-01T08:51:33;73.82;;;38.33;;
68310;SDS011;55157;51.036;17.058;2023-03-01T08:53:59;80.40;;;38.65;;
68310;SDS011;55157;51.036;17.058;2023-03-01T08:56:24;73.90;;;38.75;;
68310;SDS011;55157;51.036;17.058;2023-03-01T08:58:49;57.80;;;31.52;;
68310;SDS011;55157;51.036;17.058;2023-03-01T09:01:17;47.33;;;28.10;;
68310;SDS011;55157;51.036;17.058;2023-03-01T09:03:43;31.80;;;17.50;;
68310;SDS011;55157;51.036;17.058;2023-03-01T09:06:08;27.73;;;15.88;;
68310;SDS011;55157;51.036;17.058;2023-03-01T09:08:34;46.20;;;27.55;;
68310;SDS011;55157;51.036;17.058;2023-03-01T09:11:00;39.28;;;26.45;;
68310;SDS011;55157;51.036;17.058;2023-03-01T09:13:27;40.83;;;25.42;;
68310;SDS011;55157;51.036;17.058;2023-03-01T09:15:52;41.80;;;24.35;;
68310;SDS011;55157;51.036;17.058;2023-03-01T09:18:19;48.53;;;28.60;;
68310;SDS011;55157;51.036;17.058;2023-03-01T09:20:45;42.00;;;25.30;;
68310;SDS011;55157;51.036;17.058;2023-03-01T09:23:10;42.15;;;23.02;;
68310;SDS011;55157;51.036;17.058;2023-03-01T09:25:35;42.03;;;27.08;;
68310;SDS011;55157;51.036;17.058;2023-03-01T09:28:00;48.53;;;27.08;;
68310;SDS011;55157;51.036;17.058;2023-03-01T09:30:26;45.88;;;26.20;;
68310;SDS011;55157;51.036;17.058;2023-03-01T09:32:51;49.42;;;26.77;;
68310;SDS011;55157;51.036;17.058;2023-03-01T09:35:18;41.50;;;25.00;;
68310;SDS011;55157;51.036;17.058;2023-03-01T09:37:43;38.85;;;24.10;;
68310;SDS011;55157;51.036;17.058;2023-03-01T09:40:11;40.35;;;25.08;;
68310;SDS011;55157;51.036;17.058;2023-03-01T09:42:37;43.15;;;27.42;;
68310;SDS011;55157;51.036;17.058;2023-03-01T09:45:11;44.47;;;27.70;;
68310;SDS011;55157;51.036;17.058;2023-03-01T09:47:38;49.22;;;30.35;;
68310;SDS011;55157;51.036;17.058;2023-03-01T09:50:05;46.65;;;29.10;;
68310;SDS011;55157;51.036;17.058;2023-03-01T09:52:36;47.20;;;29.85;;
68310;SDS011;55157;51.036;17.058;2023-03-01T09:55:04;47.70;;;32.47;;
68310;SDS011;55157;51.036;17.058;2023-03-01T09:57:35;48.03;;;31.45;;
68310;SDS011;55157;51.036;17.058;2023-03-01T10:00:09;45.78;;;29.63;;
68310;SDS011;55157;51.036;17.058;2023-03-01T10:02:38;50.03;;;29.92;;
68310;SDS011;55157;51.036;17.058;2023-03-01T10:05:12;47.28;;;28.25;;
68310;SDS011;55157;51.036;17.058;2023-03-01T10:07:42;46.97;;;27.85;;
68310;SDS011;55157;51.036;17.058;2023-03-01T10:10:17;44.58;;;28.75;;
68310;SDS011;55157;51.036;17.058;2023-03-01T10:12:46;45.35;;;29.02;;
68310;SDS011;55157;51.036;17.058;2023-03-01T10:15:13;47.50;;;28.92;;
68310;SDS011;55157;51.036;17.058;2023-03-01T10:17:39;44.78;;;29.00;;
68310;SDS011;55157;51.036;17.058;2023-03-01T10:20:17;41.80;;;27.88;;
68310;SDS011;55157;51.036;17.058;2023-03-01T10:22:44;45.03;;;29.73;;
68310;SDS011;55157;51.036;17.058;2023-03-01T10:25:11;45.00;;;27.30;;
68310;SDS011;55157;51.036;17.058;2023-03-01T10:27:38;46.10;;;28.83;;
68310;SDS011;55157;51.036;17.058;2023-03-01T10:30:10;41.95;;;28.25;;
68310;SDS011;55157;51.036;17.058;2023-03-01T10:32:38;44.03;;;26.75;;
68310;SDS011;55157;51.036;17.058;2023-03-01T10:35:15;45.40;;;28.65;;
68310;SDS011;55157;51.036;17.058;2023-03-01T10:37:46;47.00;;;28.05;;
68310;SDS011;55157;51.036;17.058;2023-03-01T10:40:21;42.22;;;26.92;;
68310;SDS011;55157;51.036;17.058;2023-03-01T10:42:46;44.65;;;28.15;;
68310;SDS011;55157;51.036;17.058;2023-03-01T10:45:17;41.75;;;26.80;;
68310;SDS011;55157;51.036;17.058;2023-03-01T10:47:42;50.25;;;28.83;;
68310;SDS011;55157;51.036;17.058;2023-03-01T10:50:17;50.53;;;28.23;;
68310;SDS011;55157;51.036;17.058;2023-03-01T10:52:43;41.72;;;26.55;;
68310;SDS011;55157;51.036;17.058;2023-03-01T10:55:24;44.92;;;27.73;;
68310;SDS011;55157;51.036;17.058;2023-03-01T10:57:54;41.80;;;27.55;;
68310;SDS011;55157;51.036;17.058;2023-03-01T11:00:30;45.33;;;27.40;;
68310;SDS011;55157;51.036;17.058;2023-03-01T11:03:03;43.10;;;25.83;;
68310;SDS011;55157;51.036;17.058;2023-03-01T11:05:28;40.35;;;26.13;;
68310;SDS011;55157;51.036;17.058;2023-03-01T11:07:54;41.88;;;27.50;;
68310;SDS011;55157;51.036;17.058;2023-03-01T11:10:21;41.50;;;28.83;;
68310;SDS011;55157;51.036;17.058;2023-03-01T11:12:48;45.50;;;28.98;;
68310;SDS011;55157;51.036;17.058;2023-03-01T11:15:20;45.05;;;26.40;;
68310;SDS011;55157;51.036;17.058;2023-03-01T11:17:45;45.45;;;28.90;;
68310;SDS011;55157;51.036;17.058;2023-03-01T11:20:14;37.67;;;26.95;;
68310;SDS011;55157;51.036;17.058;2023-03-01T11:22:42;43.35;;;27.83;;
68310;SDS011;55157;51.036;17.058;2023-03-01T11:25:10;52.22;;;29.02;;
68310;SDS011;55157;51.036;17.058;2023-03-01T11:27:38;46.28;;;28.58;;
68310;SDS011;55157;51.036;17.058;2023-03-01T11:30:12;47.55;;;29.80;;
68310;SDS011;55157;51.036;17.058;2023-03-01T11:32:41;44.28;;;29.10;;
68310;SDS011;55157;51.036;17.058;2023-03-01T11:35:10;46.80;;;29.63;;
68310;SDS011;55157;51.036;17.058;2023-03-01T11:37:38;42.47;;;30.52;;
68310;SDS011;55157;51.036;17.058;2023-03-01T11:40:10;46.65;;;30.13;;
68310;SDS011;55157;51.036;17.058;2023-03-01T11:42:40;40.70;;;27.60;;
68310;SDS011;55157;51.036;17.058;2023-03-01T11:45:10;39.63;;;24.83;;
68310;SDS011;55157;51.036;17.058;2023-03-01T11:47:40;35.88;;;26.08;;
68310;SDS011;55157;51.036;17.058;2023-03-01T11:50:19;42.10;;;28.42;;
68310;SDS011;55157;51.036;17.058;2023-03-01T11:52:56;41.85;;;26.92;;
68310;SDS011;55157;51.036;17.058;2023-03-01T11:55:26;29.30;;;20.40;;
68310;SDS011;55157;51.036;17.058;2023-03-01T11:57:58;28.23;;;18.63;;
68310;SDS011;55157;51.036;17.058;2023-03-01T12:00:32;28.65;;;18.20;;
68310;SDS011;55157;51.036;17.058;2023-03-01T12:03:12;29.05;;;19.75;;
68310;SDS011;55157;51.036;17.058;2023-03-01T12:08:26;29.52;;;18.92;;
68310;SDS011;55157;51.036;17.058;2023-03-01T12:10:55;30.13;;;16.77;;
68310;SDS011;55157;51.036;17.058;2023-03-01T12:13:24;26.60;;;18.13;;
68310;SDS011;55157;51.036;17.058;2023-03-01T12:16:02;27.10;;;17.17;;
68310;SDS011;55157;51.036;17.058;2023-03-01T12:18:41;25.02;;;16.55;;
68310;SDS011;55157;51.036;17.058;2023-03-01T12:21:14;24.42;;;15.95;;
68310;SDS011;55157;51.036;17.058;2023-03-01T12:23:49;22.10;;;15.00;;
68310;SDS011;55157;51.036;17.058;2023-03-01T12:26:20;19.17;;;14.25;;
68310;SDS011;55157;51.036;17.058;2023-03-01T12:31:46;25.40;;;14.35;;
68310;SDS011;55157;51.036;17.058;2023-03-01T12:34:23;19.83;;;13.35;;
68310;SDS011;55157;51.036;17.058;2023-03-01T12:36:56;19.98;;;13.55;;
68310;SDS011;55157;51.036;17.058;2023-03-01T12:39:29;21.27;;;13.27;;
68310;SDS011;55157;51.036;17.058;2023-03-01T12:42:00;22.05;;;13.48;;
68310;SDS011;55157;51.036;17.058;2023-03-01T12:44:32;26.65;;;14.40;;
68310;SDS011;55157;51.036;17.058;2023-03-01T12:47:06;22.10;;;15.00;;
68310;SDS011;55157;51.036;17.058;2023-03-01T12:49:34;21.35;;;14.85;;
68310;SDS011;55157;51.036;17.058;2023-03-01T12:52:03;25.27;;;16.00;;
68310;SDS011;55157;51.036;17.058;2023-03-01T12:54:33;27.67;;;16.75;;
68310;SDS011;55157;51.036;17.058;2023-03-01T12:57:03;30.75;;;18.00;;
68310;SDS011;55157;51.036;17.058;2023-03-01T12:59:33;26.55;;;15.35;;
68310;SDS011;55157;51.036;17.058;2023-03-01T13:02:01;27.10;;;14.40;;
68310;SDS011;55157;51.036;17.058;2023-03-01T13:04:48;27.88;;;15.43;;
68310;SDS011;55157;51.036;17.058;2023-03-01T13:07:21;24.67;;;13.88;;
68310;SDS011;55157;51.036;17.058;2023-03-01T13:09:49;25.17;;;15.05;;
68310;SDS011;55157;51.036;17.058;2023-03-01T13:17:30;30.65;;;16.05;;
68310;SDS011;55157;51.036;17.058;2023-03-01T13:19:58;25.07;;;15.77;;
68310;SDS011;55157;51.036;17.058;2023-03-01T13:22:28;24.20;;;14.02;;
68310;SDS011;55157;51.036;17.058;2023-03-01T13:25:00;21.27;;;15.00;;
68310;SDS011;55157;51.036;17.058;2023-03-01T13:27:26;26.95;;;14.50;;
68310;SDS011;55157;51.036;17.058;2023-03-01T13:29:52;26.02;;;14.55;;
68310;SDS011;55157;51.036;17.058;2023-03-01T13:32:22;27.88;;;15.25;;
68310;SDS011;55157;51.036;17.058;2023-03-01T13:34:54;22.13;;;13.90;;
68310;SDS011;55157;51.036;17.058;2023-03-01T13:37:25;17.90;;;12.15;;
68310;SDS011;55157;51.036;17.058;2023-03-01T13:39:51;19.42;;;12.65;;
68310;SDS011;55157;51.036;17.058;2023-03-01T13:42:33;22.42;;;14.75;;
68310;SDS011;55157;51.036;17.058;2023-03-01T13:44:59;23.17;;;13.98;;
68310;SDS011;55157;51.036;17.058;2023-03-01T13:47:25;19.27;;;12.63;;
68310;SDS011;55157;51.036;17.058;2023-03-01T13:49:53;22.30;;;11.57;;
68310;SDS011;55157;51.036;17.058;2023-03-01T13:52:36;14.85;;;8.75;;
68310;SDS011;55157;51.036;17.058;2023-03-01T13:55:03;17.90;;;10.30;;
68310;SDS011;55157;51.036;17.058;2023-03-01T13:57:29;14.88;;;10.13;;
68310;SDS011;55157;51.036;17.058;2023-03-01T13:59:57;15.90;;;10.25;;
68310;SDS011;55157;51.036;17.058;2023-03-01T14:02:22;16.05;;;10.07;;
68310;SDS011;55157;51.036;17.058;2023-03-01T14:04:55;17.98;;;10.27;;
68310;SDS011;55157;51.036;17.058;2023-03-01T14:07:21;19.90;;;11.18;;
68310;SDS011;55157;51.036;17.058;2023-03-01T14:09:48;17.98;;;10.10;;
68310;SDS011;55157;51.036;17.058;2023-03-01T14:12:19;15.30;;;10.23;;